createdAt,value
2023-05-19T00:00:41.076Z,11
2023-05-19T00:01:42.087Z,10.97
2023-05-19T00:02:40.296Z,10.93
2023-05-19T00:03:40.114Z,10.93
2023-05-19T00:04:39.980Z,10.93
2023-05-19T00:05:39.921Z,10.93
2023-05-19T00:06:40.688Z,10.93
2023-05-19T00:07:40.088Z,10.93
2023-05-19T00:08:40.130Z,10.93
2023-05-19T00:09:39.842Z,10.93
2023-05-19T00:10:40.653Z,10.88
2023-05-19T00:11:40.026Z,10.87
2023-05-19T00:12:40.071Z,10.87
2023-05-19T00:13:39.784Z,10.87
2023-05-19T00:14:40.538Z,10.87
2023-05-19T00:15:39.929Z,10.87
2023-05-19T00:16:40.845Z,10.87
2023-05-19T00:17:40.438Z,10.87
2023-05-19T00:18:40.162Z,10.87
2023-05-19T00:19:39.881Z,10.87
2023-05-19T00:20:40.525Z,10.87
2023-05-19T00:21:40.240Z,10.87
2023-05-19T00:22:39.776Z,10.85
2023-05-19T00:23:40.401Z,10.82
2023-05-19T00:24:44.940Z,10.82
2023-05-19T00:25:40.594Z,10.81
2023-05-19T00:26:40.127Z,10.81
2023-05-19T00:27:39.769Z,10.81
2023-05-19T00:28:40.260Z,10.81
2023-05-19T00:29:39.886Z,10.81
2023-05-19T00:30:40.746Z,10.81
2023-05-19T00:31:40.322Z,10.81
2023-05-19T00:32:40.163Z,10.81
2023-05-19T00:33:39.816Z,10.81
2023-05-19T00:34:40.037Z,10.81
2023-05-19T00:35:39.652Z,10.80
2023-05-19T00:36:40.154Z,10.76
2023-05-19T00:37:39.778Z,10.75
2023-05-19T00:38:40.102Z,10.75
2023-05-19T00:39:39.780Z,10.75
2023-05-19T00:40:40.472Z,10.75
2023-05-19T00:41:40.016Z,10.75
2023-05-19T00:42:40.090Z,10.75
2023-05-19T00:43:40.042Z,10.75
2023-05-19T00:44:40.002Z,10.75
2023-05-19T00:45:39.908Z,10.72
2023-05-19T00:46:40.436Z,10.70
2023-05-19T00:47:40.281Z,10.68
2023-05-19T00:48:40.070Z,10.71
2023-05-19T00:49:39.979Z,10.70
2023-05-19T00:50:40.354Z,10.69
2023-05-19T00:51:39.934Z,10.69
2023-05-19T00:52:55.235Z,10.68
2023-05-19T00:53:40.672Z,10.68
2023-05-19T00:54:40.826Z,10.68
2023-05-19T00:55:40.503Z,10.68
2023-05-19T00:56:40.200Z,10.68
2023-05-19T00:57:40.058Z,10.68
2023-05-19T00:58:40.029Z,10.68
2023-05-19T00:59:40.094Z,10.68
2023-05-19T01:00:41.497Z,10.68
2023-05-19T01:01:40.464Z,10.67
2023-05-19T01:02:40.758Z,10.65
2023-05-19T01:03:40.609Z,10.63
2023-05-19T01:04:40.287Z,10.62
2023-05-19T01:05:40.025Z,10.62
2023-05-19T01:06:40.072Z,10.62
2023-05-19T01:07:40.086Z,10.62
2023-05-19T01:08:39.847Z,10.62
2023-05-19T01:09:40.525Z,10.62
2023-05-19T01:10:40.256Z,10.62
2023-05-19T01:11:39.967Z,10.62
2023-05-19T01:12:39.664Z,10.61
2023-05-19T01:13:42.080Z,10.62
2023-05-19T01:14:40.072Z,10.58
2023-05-19T01:15:39.857Z,10.60
2023-05-19T01:16:40.547Z,10.58
2023-05-19T01:17:40.566Z,10.60
2023-05-19T01:18:40.316Z,10.58
2023-05-19T01:19:40.089Z,10.56
2023-05-19T01:20:39.967Z,10.56
2023-05-19T01:21:39.756Z,10.56
2023-05-19T01:22:40.310Z,10.56
2023-05-19T01:23:40.387Z,10.56
2023-05-19T01:24:40.168Z,10.56
2023-05-19T01:25:40.178Z,10.56
2023-05-19T01:26:39.966Z,10.56
2023-05-19T01:27:40.310Z,10.56
2023-05-19T01:28:40.366Z,10.56
2023-05-19T01:29:40.086Z,10.56
2023-05-19T01:30:40.102Z,10.56
2023-05-19T01:31:40.062Z,10.56
2023-05-19T01:32:40.166Z,10.56
2023-05-19T01:33:39.966Z,10.56
2023-05-19T01:34:39.924Z,10.56
2023-05-19T01:35:40.513Z,10.56
2023-05-19T01:36:40.159Z,10.56
2023-05-19T01:37:39.811Z,10.56
2023-05-19T01:38:40.177Z,10.56
2023-05-19T01:39:39.848Z,10.56
2023-05-19T01:40:40.515Z,8.699
2023-05-19T01:41:40.136Z,10.54
2023-05-19T01:42:39.711Z,10.51
2023-05-19T01:43:40.032Z,10.5
2023-05-19T01:44:39.797Z,10.5
2023-05-19T01:45:40.393Z,10.5
2023-05-19T01:46:40.518Z,10.5
2023-05-19T01:47:40.213Z,10.5
2023-05-19T01:48:39.858Z,10.5
2023-05-19T01:49:40.510Z,10.5
2023-05-19T01:50:40.135Z,10.5
2023-05-19T01:51:40.082Z,10.5
2023-05-19T01:52:39.578Z,10.5
2023-05-19T01:53:40.213Z,10.45
2023-05-19T01:54:39.958Z,10.43
2023-05-19T01:55:40.631Z,10.43
2023-05-19T01:56:40.389Z,10.43
2023-05-19T01:57:39.990Z,10.43
2023-05-19T01:58:40.010Z,10.43
2023-05-19T01:59:39.604Z,10.43
2023-05-19T02:00:41.360Z,10.43
2023-05-19T02:01:40.207Z,10.43
2023-05-19T02:02:40.336Z,10.43
2023-05-19T02:03:40.110Z,10.43
2023-05-19T02:04:40.368Z,10.43
2023-05-19T02:05:40.051Z,10.42
2023-05-19T02:06:39.865Z,10.37
2023-05-19T02:07:45.331Z,10.38
2023-05-19T02:08:40.106Z,10.37
2023-05-19T02:09:45.136Z,10.37
2023-05-19T02:10:40.036Z,10.37
2023-05-19T02:11:39.834Z,10.37
2023-05-19T02:12:40.307Z,10.37
2023-05-19T02:13:40.000Z,10.37
2023-05-19T02:14:40.070Z,10.37
2023-05-19T02:15:40.181Z,10.37
2023-05-19T02:16:40.273Z,10.37
2023-05-19T02:17:40.445Z,10.34
2023-05-19T02:18:40.713Z,10.32
2023-05-19T02:19:40.743Z,10.33
2023-05-19T02:20:40.240Z,10.35
2023-05-19T02:21:40.186Z,10.37
2023-05-19T02:22:40.124Z,10.35
2023-05-19T02:23:39.988Z,10.33
2023-05-19T02:24:40.142Z,10.32
2023-05-19T02:25:40.041Z,10.31
2023-05-19T02:26:40.142Z,10.31
2023-05-19T02:27:40.282Z,10.31
2023-05-19T02:28:40.137Z,10.31
2023-05-19T02:29:44.571Z,10.31
2023-05-19T02:30:40.480Z,10.26
2023-05-19T02:31:40.373Z,10.27
2023-05-19T02:32:40.457Z,10.27
2023-05-19T02:33:40.302Z,10.26
2023-05-19T02:34:40.379Z,10.27
2023-05-19T02:35:40.560Z,10.25
2023-05-19T02:36:40.165Z,10.25
2023-05-19T02:37:40.049Z,10.26
2023-05-19T02:38:39.956Z,10.28
2023-05-19T02:39:40.175Z,10.27
2023-05-19T02:40:40.068Z,10.25
2023-05-19T02:41:40.066Z,10.25
2023-05-19T02:42:40.231Z,10.25
2023-05-19T02:43:40.149Z,10.25
2023-05-19T02:44:40.317Z,10.21
2023-05-19T02:45:40.673Z,10.18
2023-05-19T02:46:40.879Z,10.19
2023-05-19T02:47:41.866Z,10.18
2023-05-19T02:48:41.135Z,10.18
2023-05-19T02:49:40.395Z,10.18
2023-05-19T02:50:40.041Z,10.18
2023-05-19T02:51:39.768Z,10.18
2023-05-19T02:52:40.196Z,10.18
2023-05-19T02:53:39.882Z,10.18
2023-05-19T02:54:40.286Z,10.18
2023-05-19T02:55:40.223Z,10.18
2023-05-19T02:56:40.063Z,10.18
2023-05-19T02:57:39.953Z,10.17
2023-05-19T02:58:39.964Z,10.18
2023-05-19T02:59:41.697Z,10.18
2023-05-19T03:00:41.923Z,10.18
2023-05-19T03:02:12.872Z,10.18
2023-05-19T03:02:45.449Z,10.18
2023-05-19T03:03:40.626Z,10.12
2023-05-19T03:04:40.644Z,10.13
2023-05-19T03:05:40.595Z,10.18
2023-05-19T03:06:40.590Z,10.18
2023-05-19T03:07:40.289Z,10.14
2023-05-19T03:08:42.283Z,10.12
2023-05-19T03:09:40.468Z,10.13
2023-05-19T03:10:40.405Z,10.17
2023-05-19T03:11:40.066Z,10.18
2023-05-19T03:12:40.148Z,10.18
2023-05-19T03:13:40.126Z,10.18
2023-05-19T03:14:40.263Z,10.18
2023-05-19T03:15:40.666Z,10.18
2023-05-19T03:16:40.312Z,10.18
2023-05-19T03:17:40.354Z,10.16
2023-05-19T03:18:40.533Z,10.13
2023-05-19T03:19:40.423Z,10.14
2023-05-19T03:20:41.727Z,10.13
2023-05-19T03:21:40.388Z,10.12
2023-05-19T03:22:40.145Z,10.12
2023-05-19T03:23:40.005Z,10.12
2023-05-19T03:24:39.772Z,10.12
2023-05-19T03:25:40.146Z,10.12
2023-05-19T03:26:39.929Z,10.12
2023-05-19T03:27:40.518Z,10.12
2023-05-19T03:28:40.172Z,10.12
2023-05-19T03:29:40.173Z,10.12
2023-05-19T03:30:40.023Z,10.12
2023-05-19T03:31:40.186Z,10.12
2023-05-19T03:32:40.091Z,10.12
2023-05-19T03:33:40.251Z,10.12
2023-05-19T03:34:40.276Z,10.11
2023-05-19T03:35:40.150Z,10.12
2023-05-19T03:36:40.287Z,10.12
2023-05-19T03:37:40.124Z,10.10
2023-05-19T03:38:40.810Z,10.07
2023-05-19T03:39:40.598Z,10.06
2023-05-19T03:40:40.930Z,10.06
2023-05-19T03:41:40.431Z,10.06
2023-05-19T03:42:40.038Z,10.06
2023-05-19T03:43:39.878Z,10.07
2023-05-19T03:44:40.487Z,10.09
2023-05-19T03:45:40.749Z,10.12
2023-05-19T03:46:40.814Z,10.11
2023-05-19T03:47:40.733Z,10.07
2023-05-19T03:48:40.646Z,10.06
2023-05-19T03:49:40.394Z,10.06
2023-05-19T03:50:40.382Z,10.06
2023-05-19T03:51:40.500Z,10.06
2023-05-19T03:52:40.222Z,10.06
2023-05-19T03:53:40.123Z,10.06
2023-05-19T03:54:40.376Z,10.06
2023-05-19T03:55:40.643Z,10.06
2023-05-19T03:56:40.323Z,10.06
2023-05-19T03:57:40.237Z,10.05
2023-05-19T03:58:40.384Z,10.06
2023-05-19T03:59:40.520Z,10.06
2023-05-19T04:00:41.528Z,10.06
2023-05-19T04:01:40.605Z,10.06
2023-05-19T04:02:41.155Z,10.06
2023-05-19T04:03:40.583Z,10.06
2023-05-19T04:04:40.690Z,10.06
2023-05-19T04:05:40.354Z,10.06
2023-05-19T04:06:40.768Z,10.06
2023-05-19T04:07:40.650Z,10.06
2023-05-19T04:08:40.539Z,10.06
2023-05-19T04:09:40.350Z,10.06
2023-05-19T04:10:40.224Z,10.06
2023-05-19T04:11:40.203Z,10.06
2023-05-19T04:12:40.435Z,10.05
2023-05-19T04:13:40.163Z,10.05
2023-05-19T04:14:40.256Z,10.05
2023-05-19T04:15:40.667Z,10.02
2023-05-19T04:16:40.878Z,10
2023-05-19T04:17:40.965Z,10
2023-05-19T04:18:42.751Z,10
2023-05-19T04:19:40.393Z,10
2023-05-19T04:20:40.429Z,10
2023-05-19T04:21:40.511Z,10
2023-05-19T04:22:40.472Z,10
2023-05-19T04:23:40.532Z,10
2023-05-19T04:24:40.743Z,10
2023-05-19T04:25:41.507Z,10
2023-05-19T04:26:40.600Z,10
2023-05-19T04:27:40.251Z,10.01
2023-05-19T04:28:40.194Z,10
2023-05-19T04:29:40.178Z,10
2023-05-19T04:30:40.426Z,10
2023-05-19T04:31:40.681Z,10
2023-05-19T04:32:45.592Z,10
2023-05-19T04:33:40.411Z,10
2023-05-19T04:34:40.442Z,10
2023-05-19T04:35:40.364Z,10
2023-05-19T04:36:40.471Z,10
2023-05-19T04:37:40.314Z,10
2023-05-19T04:38:40.109Z,10
2023-05-19T04:39:39.918Z,10.03
2023-05-19T04:40:40.530Z,10.02
2023-05-19T04:41:40.301Z,10.04
2023-05-19T04:42:40.126Z,10.02
2023-05-19T04:43:40.069Z,10.02
2023-05-19T04:44:39.725Z,10.01
2023-05-19T04:45:40.803Z,10
2023-05-19T04:46:40.547Z,10
2023-05-19T04:47:40.476Z,10
2023-05-19T04:48:40.518Z,10.01
2023-05-19T04:49:40.652Z,10.04
2023-05-19T04:50:40.613Z,10.06
2023-05-19T04:51:40.527Z,10.06
2023-05-19T04:52:40.385Z,10.06
2023-05-19T04:53:40.537Z,10.06
2023-05-19T04:54:40.401Z,10.06
2023-05-19T04:55:40.302Z,10.06
2023-05-19T04:56:40.438Z,10.06
2023-05-19T04:57:40.576Z,10.06
2023-05-19T04:58:42.069Z,10.06
2023-05-19T04:59:40.408Z,10.06
2023-05-19T05:00:40.923Z,10.06
2023-05-19T05:01:41.024Z,10.06
2023-05-19T05:02:40.394Z,10.07
2023-05-19T05:03:40.502Z,10.08
2023-05-19T05:04:40.427Z,10.07
2023-05-19T05:05:40.384Z,10.07
2023-05-19T05:06:40.310Z,10.06
2023-05-19T05:07:40.634Z,10.06
2023-05-19T05:08:40.487Z,10.06
2023-05-19T05:09:40.369Z,10.07
2023-05-19T05:10:40.385Z,10.07
2023-05-19T05:11:40.337Z,10.08
2023-05-19T05:12:40.516Z,10.11
2023-05-19T05:13:40.427Z,10.12
2023-05-19T05:14:40.499Z,10.12
2023-05-19T05:15:41.009Z,10.12
2023-05-19T05:16:40.334Z,10.12
2023-05-19T05:17:40.473Z,10.12
2023-05-19T05:18:42.225Z,10.12
2023-05-19T05:19:40.494Z,10.12
2023-05-19T05:20:40.619Z,10.12
2023-05-19T05:21:40.587Z,10.14
2023-05-19T05:22:40.439Z,10.17
2023-05-19T05:23:40.383Z,10.18
2023-05-19T05:24:40.303Z,10.18
2023-05-19T05:25:40.532Z,10.18
2023-05-19T05:26:40.555Z,10.18
2023-05-19T05:27:40.618Z,10.18
2023-05-19T05:28:40.734Z,10.18
2023-05-19T05:29:40.736Z,10.18
2023-05-19T05:30:41.226Z,10.20
2023-05-19T05:31:40.436Z,10.23
2023-05-19T05:32:40.268Z,10.25
2023-05-19T05:33:40.546Z,10.25
2023-05-19T05:34:40.243Z,10.25
2023-05-19T05:35:40.177Z,10.25
2023-05-19T05:36:40.592Z,10.25
2023-05-19T05:37:40.471Z,10.25
2023-05-19T05:38:40.416Z,10.25
2023-05-19T05:39:41.720Z,10.25
2023-05-19T05:40:40.629Z,10.25
2023-05-19T05:41:40.679Z,10.30
2023-05-19T05:42:41.975Z,10.31
2023-05-19T05:43:40.287Z,10.31
2023-05-19T05:44:40.464Z,10.31
2023-05-19T05:45:40.926Z,10.31
2023-05-19T05:46:40.899Z,10.31
2023-05-19T05:47:40.625Z,10.31
2023-05-19T05:48:40.406Z,10.31
2023-05-19T05:49:40.373Z,10.31
2023-05-19T05:50:40.595Z,10.31
2023-05-19T05:51:40.756Z,10.32
2023-05-19T05:52:40.485Z,10.32
2023-05-19T05:53:40.455Z,10.35
2023-05-19T05:54:40.729Z,10.37
2023-05-19T05:55:40.888Z,10.37
2023-05-19T05:56:40.856Z,10.37
2023-05-19T05:57:41.234Z,10.37
2023-05-19T05:58:40.513Z,10.37
2023-05-19T05:59:40.521Z,10.37
2023-05-19T06:00:41.611Z,10.37
2023-05-19T06:01:40.452Z,10.37
2023-05-19T06:02:40.464Z,10.40
2023-05-19T06:03:40.877Z,10.41
2023-05-19T06:04:40.592Z,10.39
2023-05-19T06:05:41.005Z,10.43
2023-05-19T06:06:40.526Z,10.43
2023-05-19T06:07:40.427Z,10.43
2023-05-19T06:08:40.473Z,10.41
2023-05-19T06:09:40.507Z,10.43
2023-05-19T06:10:40.601Z,10.43
2023-05-19T06:11:40.470Z,10.43
2023-05-19T06:12:40.408Z,10.43
2023-05-19T06:13:40.226Z,10.43
2023-05-19T06:14:40.351Z,10.43
2023-05-19T06:15:40.756Z,10.43
2023-05-19T06:16:40.901Z,10.44
2023-05-19T06:17:40.973Z,10.43
2023-05-19T06:18:40.477Z,10.47
2023-05-19T06:19:40.423Z,10.48
2023-05-19T06:20:40.320Z,10.5
2023-05-19T06:21:40.522Z,10.5
2023-05-19T06:22:40.342Z,10.5
2023-05-19T06:23:40.610Z,10.5
2023-05-19T06:24:40.743Z,10.5
2023-05-19T06:25:41.061Z,10.5
2023-05-19T06:26:40.357Z,10.5
2023-05-19T06:27:40.392Z,10.5
2023-05-19T06:28:40.463Z,10.5
2023-05-19T06:29:40.561Z,10.5
2023-05-19T06:30:40.816Z,10.5
2023-05-19T06:31:40.652Z,10.5
2023-05-19T06:32:40.936Z,10.5
2023-05-19T06:33:44.779Z,10.5
2023-05-19T06:34:40.591Z,10.5
2023-05-19T06:35:40.535Z,10.5
2023-05-19T06:36:40.479Z,10.51
2023-05-19T06:37:40.333Z,10.5
2023-05-19T06:38:40.441Z,10.51
2023-05-19T06:39:40.267Z,10.52
2023-05-19T06:40:40.586Z,10.54
2023-05-19T06:41:40.975Z,10.5
2023-05-19T06:42:40.212Z,10.51
2023-05-19T06:43:40.687Z,10.56
2023-05-19T06:44:40.752Z,10.56
2023-05-19T06:45:41.318Z,10.56
2023-05-19T06:46:40.866Z,10.56
2023-05-19T06:47:41.233Z,10.56
2023-05-19T06:48:41.070Z,10.56
2023-05-19T06:49:40.792Z,10.56
2023-05-19T06:50:41.304Z,10.56
2023-05-19T06:51:40.746Z,10.56
2023-05-19T06:52:40.818Z,10.56
2023-05-19T06:53:40.691Z,10.56
2023-05-19T06:54:40.702Z,10.56
2023-05-19T06:56:40.566Z,10.56
2023-05-19T06:57:40.507Z,10.56
2023-05-19T06:58:40.559Z,10.56
2023-05-19T06:59:40.993Z,10.61
2023-05-19T07:00:41.159Z,10.62
2023-05-19T07:01:40.375Z,10.62
2023-05-19T07:02:40.912Z,10.62
2023-05-19T07:03:41.446Z,10.62
2023-05-19T07:04:40.799Z,10.62
2023-05-19T07:05:41.028Z,10.62
2023-05-19T07:06:40.606Z,10.62
2023-05-19T07:07:41.024Z,10.62
2023-05-19T07:08:40.817Z,10.62
2023-05-19T07:09:40.382Z,10.62
2023-05-19T07:10:40.783Z,10.62
2023-05-19T07:11:40.942Z,10.62
2023-05-19T07:12:40.957Z,10.62
2023-05-19T07:13:43.217Z,10.62
2023-05-19T07:14:40.778Z,10.62
2023-05-19T07:15:40.954Z,10.63
2023-05-19T07:16:40.458Z,10.68
2023-05-19T07:17:40.773Z,10.62
2023-05-19T07:18:40.709Z,10.63
2023-05-19T07:19:55.074Z,10.67
2023-05-19T07:20:40.606Z,10.66
2023-05-19T07:21:40.523Z,10.67
2023-05-19T07:22:40.539Z,10.68
2023-05-19T07:23:54.709Z,10.67
2023-05-19T07:24:40.833Z,10.68
2023-05-19T07:25:41.108Z,10.68
2023-05-19T07:26:40.694Z,10.68
2023-05-19T07:27:40.714Z,10.68
2023-05-19T07:28:41.688Z,10.68
2023-05-19T07:29:40.982Z,10.68
2023-05-19T07:30:40.670Z,10.68
2023-05-19T07:31:40.685Z,10.68
2023-05-19T07:32:40.833Z,10.68
2023-05-19T07:33:40.795Z,10.68
2023-05-19T07:34:40.932Z,10.68
2023-05-19T07:35:40.870Z,10.68
2023-05-19T07:36:40.744Z,10.70
2023-05-19T07:37:45.640Z,10.68
2023-05-19T07:38:40.458Z,10.68
2023-05-19T07:39:40.601Z,10.68
2023-05-19T07:40:40.967Z,10.68
2023-05-19T07:41:45.462Z,10.68
2023-05-19T07:42:40.900Z,10.68
2023-05-19T07:43:40.956Z,10.68
2023-05-19T07:44:40.777Z,10.70
2023-05-19T07:45:41.790Z,10.72
2023-05-19T07:46:41.433Z,10.75
2023-05-19T07:47:40.660Z,10.75
2023-05-19T07:48:41.312Z,10.75
2023-05-19T07:49:40.885Z,10.75
2023-05-19T07:50:41.145Z,10.75
2023-05-19T07:51:40.879Z,10.75
2023-05-19T07:52:41.381Z,10.75
2023-05-19T07:53:41.129Z,10.75
2023-05-19T07:54:40.763Z,10.75
2023-05-19T07:56:13.272Z,10.75
2023-05-19T07:56:46.613Z,10.75
2023-05-19T07:57:40.778Z,10.75
2023-05-19T07:58:40.667Z,10.75
2023-05-19T07:59:41.040Z,10.75
2023-05-19T08:00:41.349Z,10.75
2023-05-19T08:02:12.144Z,10.75
2023-05-19T08:02:45.861Z,10.75
2023-05-19T08:03:41.838Z,10.75
2023-05-19T08:04:41.085Z,10.75
2023-05-19T08:05:40.600Z,10.77
2023-05-19T08:06:40.725Z,10.76
2023-05-19T08:07:40.649Z,10.78
2023-05-19T08:08:41.659Z,10.75
2023-05-19T08:09:41.424Z,10.75
2023-05-19T08:10:40.892Z,10.76
2023-05-19T08:11:40.928Z,10.81
2023-05-19T08:12:40.794Z,10.81
2023-05-19T08:13:40.828Z,10.81
2023-05-19T08:14:41.200Z,10.81
2023-05-19T08:15:40.739Z,10.81
2023-05-19T08:16:40.776Z,10.81
2023-05-19T08:17:40.553Z,10.81
2023-05-19T08:18:40.366Z,10.81
2023-05-19T08:19:40.801Z,10.81
2023-05-19T08:20:40.740Z,10.81
2023-05-19T08:21:40.998Z,10.81
2023-05-19T08:22:39.971Z,10.81
2023-05-19T08:23:39.995Z,10.81
2023-05-19T08:24:39.972Z,10.81
2023-05-19T08:25:40.712Z,10.81
2023-05-19T08:26:40.684Z,10.81
2023-05-19T08:27:40.452Z,10.81
2023-05-19T08:28:40.191Z,10.81
2023-05-19T08:29:40.483Z,10.81
2023-05-19T08:30:40.907Z,10.81
2023-05-19T08:31:41.492Z,10.84
2023-05-19T08:32:40.851Z,10.84
2023-05-19T08:33:40.874Z,10.87
2023-05-19T08:34:40.637Z,10.85
2023-05-19T08:35:40.521Z,10.87
2023-05-19T08:36:40.582Z,10.87
2023-05-19T08:37:40.494Z,10.87
2023-05-19T08:38:40.773Z,10.87
2023-05-19T08:39:40.702Z,10.87
2023-05-19T08:40:40.807Z,10.87
2023-05-19T08:41:40.714Z,10.87
2023-05-19T08:42:40.760Z,10.87
2023-05-19T08:43:40.603Z,10.87
2023-05-19T08:44:40.369Z,10.87
2023-05-19T08:45:40.822Z,10.87
2023-05-19T08:46:41.301Z,10.87
2023-05-19T08:47:40.654Z,10.87
2023-05-19T08:48:40.741Z,10.90
2023-05-19T08:49:41.569Z,10.93
2023-05-19T08:50:40.936Z,10.93
2023-05-19T08:51:41.580Z,10.93
2023-05-19T08:52:40.797Z,10.93
2023-05-19T08:53:50.267Z,10.92
2023-05-19T08:54:40.679Z,10.93
2023-05-19T08:55:41.410Z,10.93
2023-05-19T08:56:41.023Z,10.93
2023-05-19T08:57:40.332Z,10.93
2023-05-19T08:58:42.857Z,10.93
2023-05-19T08:59:41.215Z,10.93
2023-05-19T09:00:41.678Z,10.93
2023-05-19T09:01:40.987Z,10.93
2023-05-19T09:02:50.512Z,10.94
2023-05-19T09:03:40.621Z,10.95
2023-05-19T09:04:42.521Z,10.93
2023-05-19T09:05:41.772Z,10.93
2023-05-19T09:06:41.352Z,10.93
2023-05-19T09:07:41.062Z,10.93
2023-05-19T09:08:40.783Z,10.95
2023-05-19T09:09:41.343Z,10.93
2023-05-19T09:10:43.046Z,10.95
2023-05-19T09:11:40.905Z,10.93
2023-05-19T09:12:41.299Z,11
2023-05-19T09:13:40.863Z,10.96
2023-05-19T09:14:41.166Z,10.98
2023-05-19T09:15:40.815Z,11
2023-05-19T09:16:44.611Z,11
2023-05-19T09:17:40.981Z,11
2023-05-19T09:18:41.059Z,11
2023-05-19T09:19:40.911Z,11
2023-05-19T09:20:41.860Z,11
2023-05-19T09:21:41.056Z,11
2023-05-19T09:22:40.568Z,11
2023-05-19T09:23:40.923Z,11
2023-05-19T09:24:46.040Z,11
2023-05-19T09:25:40.842Z,11
2023-05-19T09:26:46.084Z,11
2023-05-19T09:27:40.816Z,11
2023-05-19T09:28:41.618Z,11
2023-05-19T09:29:41.260Z,11.01
2023-05-19T09:30:40.738Z,11.04
2023-05-19T09:31:40.874Z,11.06
2023-05-19T09:32:40.652Z,11.06
2023-05-19T09:33:42.238Z,11.06
2023-05-19T09:34:41.113Z,11.06
2023-05-19T09:35:40.705Z,11.06
2023-05-19T09:36:40.831Z,11.06
2023-05-19T09:37:40.852Z,11.06
2023-05-19T09:38:40.829Z,11.06
2023-05-19T09:39:41.335Z,11.06
2023-05-19T09:40:40.828Z,11.06
2023-05-19T09:41:41.043Z,11.06
2023-05-19T09:42:40.765Z,11.06
2023-05-19T09:43:40.927Z,11.08
2023-05-19T09:44:41.070Z,11.10
2023-05-19T09:45:40.884Z,11.09
2023-05-19T09:46:41.419Z,11.08
2023-05-19T09:47:40.914Z,11.11
2023-05-19T09:48:41.045Z,11.12
2023-05-19T09:49:40.674Z,11.12
2023-05-19T09:50:54.907Z,11.12
2023-05-19T09:51:41.508Z,11.12
2023-05-19T09:52:40.782Z,11.12
2023-05-19T09:53:41.001Z,11.12
2023-05-19T09:54:40.873Z,11.12
2023-05-19T09:55:41.147Z,11.12
2023-05-19T09:56:40.676Z,11.12
2023-05-19T09:57:40.931Z,11.12
2023-05-19T09:58:41.088Z,11.12
2023-05-19T09:59:40.596Z,11.12
2023-05-19T10:01:00.903Z,11.12
2023-05-19T10:01:40.705Z,11.12
2023-05-19T10:02:41.559Z,11.12
2023-05-19T10:03:40.997Z,11.12
2023-05-19T10:04:40.910Z,11.12
2023-05-19T10:05:41.960Z,11.12
2023-05-19T10:06:41.701Z,11.12
2023-05-19T10:07:41.884Z,11.12
2023-05-19T10:08:41.366Z,11.12
2023-05-19T10:09:40.758Z,11.12
2023-05-19T10:10:41.399Z,11.12
2023-05-19T10:11:41.097Z,11.12
2023-05-19T10:12:48.681Z,11.12
2023-05-19T10:13:41.354Z,11.12
2023-05-19T10:14:40.901Z,11.12
2023-05-19T10:15:54.268Z,11.12
2023-05-19T10:17:12.747Z,11.14
2023-05-19T10:17:46.310Z,11.18
2023-05-19T10:18:54.807Z,11.18
2023-05-19T10:19:40.987Z,11.18
2023-05-19T10:20:40.305Z,11.18
2023-05-19T10:21:40.440Z,11.18
2023-05-19T10:22:40.931Z,11.18
2023-05-19T10:23:41.415Z,11.18
2023-05-19T10:25:12.904Z,11.18
2023-05-19T10:25:46.185Z,11.18
2023-05-19T10:26:54.593Z,11.18
2023-05-19T10:27:41.113Z,11.18
2023-05-19T10:28:40.593Z,11.18
2023-05-19T10:29:41.132Z,11.18
2023-05-19T10:30:40.897Z,11.18
2023-05-19T10:31:41.098Z,11.18
2023-05-19T10:32:59.821Z,11.18
2023-05-19T10:33:41.019Z,11.18
2023-05-19T10:34:59.839Z,11.18
2023-05-19T10:35:41.906Z,11.18
2023-05-19T10:36:41.508Z,11.18
2023-05-19T10:37:41.245Z,11.18
2023-05-19T10:38:40.920Z,11.18
2023-05-19T10:39:40.585Z,11.18
2023-05-19T10:40:41.253Z,11.18
2023-05-19T10:41:40.793Z,11.18
2023-05-19T10:42:40.941Z,11.18
2023-05-19T10:45:02.288Z,11.18
2023-05-19T10:45:40.878Z,11.18
2023-05-19T10:47:03.266Z,11.18
2023-05-19T10:47:41.395Z,11.18
2023-05-19T10:48:40.840Z,11.18
2023-05-19T10:49:40.971Z,11.18
2023-05-19T10:50:40.754Z,11.18
2023-05-19T10:51:41.149Z,11.18
2023-05-19T10:52:40.490Z,11.21
2023-05-19T10:53:40.810Z,11.25
2023-05-19T10:54:41.171Z,11.25
2023-05-19T10:55:40.987Z,11.25
2023-05-19T10:56:40.181Z,11.23
2023-05-19T10:57:40.328Z,11.23
2023-05-19T10:58:40.747Z,11.25
2023-05-19T10:59:44.050Z,11.23
2023-05-19T11:00:41.295Z,11.25
2023-05-19T11:01:40.833Z,11.25
2023-05-19T11:02:41.745Z,11.25
2023-05-19T11:03:43.052Z,11.25
2023-05-19T11:04:41.139Z,11.25
2023-05-19T11:05:41.260Z,11.25
2023-05-19T11:06:40.927Z,11.25
2023-05-19T11:07:40.761Z,11.25
2023-05-19T11:08:41.258Z,11.25
2023-05-19T11:09:55.974Z,11.25
2023-05-19T11:10:41.214Z,11.25
2023-05-19T11:11:40.744Z,11.25
2023-05-19T11:12:41.473Z,11.25
2023-05-19T11:13:42.218Z,11.25
2023-05-19T11:14:40.592Z,11.25
2023-05-19T11:15:41.080Z,11.25
2023-05-19T11:16:41.010Z,11.25
2023-05-19T11:17:40.712Z,11.25
2023-05-19T11:18:41.730Z,11.25
2023-05-19T11:19:41.506Z,11.25
2023-05-19T11:20:40.980Z,11.25
2023-05-19T11:21:40.954Z,11.25
2023-05-19T11:22:41.311Z,11.27
2023-05-19T11:23:40.887Z,11.26
2023-05-19T11:24:41.150Z,11.29
2023-05-19T11:25:40.702Z,11.28
2023-05-19T11:26:41.039Z,11.31
2023-05-19T11:27:40.664Z,11.31
2023-05-19T11:28:40.902Z,11.31
2023-05-19T11:29:40.957Z,11.31
2023-05-19T11:30:41.150Z,11.31
2023-05-19T11:31:40.588Z,11.31
2023-05-19T11:32:41.193Z,11.31
2023-05-19T11:33:40.397Z,11.31
2023-05-19T11:34:40.575Z,11.31
2023-05-19T11:35:41.095Z,11.31
2023-05-19T11:36:40.823Z,11.31
2023-05-19T11:37:41.037Z,11.31
2023-05-19T11:38:40.141Z,11.31
2023-05-19T11:39:40.592Z,11.31
2023-05-19T11:40:40.905Z,11.31
2023-05-19T11:41:41.117Z,11.31
2023-05-19T11:42:40.585Z,11.31
2023-05-19T11:43:41.066Z,11.31
2023-05-19T11:44:40.124Z,11.36
2023-05-19T11:45:40.904Z,11.37
2023-05-19T11:46:41.787Z,11.37
2023-05-19T11:47:57.166Z,11.37
2023-05-19T11:48:40.953Z,11.37
2023-05-19T11:49:41.420Z,11.36
2023-05-19T11:50:40.989Z,11.37
2023-05-19T11:51:40.525Z,11.37
2023-05-19T11:52:41.174Z,11.37
2023-05-19T11:53:45.736Z,11.37
2023-05-19T11:54:41.206Z,11.37
2023-05-19T11:55:40.980Z,11.37
2023-05-19T11:56:40.750Z,11.37
2023-05-19T11:57:43.081Z,11.37
2023-05-19T11:58:41.191Z,11.37
2023-05-19T11:59:40.481Z,11.37
2023-05-19T12:00:41.647Z,11.37
2023-05-19T12:01:41.019Z,11.37
2023-05-19T12:02:40.231Z,11.39
2023-05-19T12:03:48.312Z,11.38
2023-05-19T12:04:40.517Z,11.41
2023-05-19T12:05:59.464Z,11.43
2023-05-19T12:06:40.991Z,11.43
2023-05-19T12:07:40.395Z,11.43
2023-05-19T12:08:40.891Z,11.43
2023-05-19T12:09:55.149Z,11.43
2023-05-19T12:10:41.046Z,11.43
2023-05-19T12:11:54.617Z,11.43
2023-05-19T12:12:40.909Z,11.43
2023-05-19T12:13:55.068Z,11.43
2023-05-19T12:14:40.604Z,11.43
2023-05-19T12:15:41.113Z,11.43
2023-05-19T12:16:41.476Z,11.43
2023-05-19T12:17:41.563Z,11.43
2023-05-19T12:18:41.041Z,11.43
2023-05-19T12:19:40.736Z,11.43
2023-05-19T12:20:41.340Z,11.47
2023-05-19T12:21:50.160Z,11.5
2023-05-19T12:22:40.696Z,11.5
2023-05-19T12:23:41.142Z,11.56
2023-05-19T12:24:40.903Z,11.52
2023-05-19T12:25:45.858Z,11.5
2023-05-19T12:26:41.181Z,11.5
2023-05-19T12:27:59.229Z,11.5
2023-05-19T12:28:40.957Z,11.5
2023-05-19T12:29:40.996Z,11.5
2023-05-19T12:30:40.849Z,11.5
2023-05-19T12:31:41.622Z,11.5
2023-05-19T12:32:41.518Z,11.5
2023-05-19T12:33:45.954Z,11.5
2023-05-19T12:34:41.395Z,11.5
2023-05-19T12:35:40.900Z,11.5
2023-05-19T12:36:41.092Z,11.5
2023-05-19T12:37:40.338Z,11.5
2023-05-19T12:38:40.455Z,11.5
2023-05-19T12:39:40.618Z,11.5
2023-05-19T12:40:41.262Z,11.5
2023-05-19T12:41:40.291Z,11.5
2023-05-19T12:42:40.853Z,11.5
2023-05-19T12:43:41.099Z,11.52
2023-05-19T12:44:40.619Z,11.52
2023-05-19T12:46:13.299Z,11.52
2023-05-19T12:46:46.206Z,11.5
2023-05-19T12:47:55.019Z,11.51
2023-05-19T12:48:40.714Z,11.51
2023-05-19T12:50:12.969Z,11.53
2023-05-19T12:50:46.624Z,11.56
2023-05-19T12:51:41.260Z,11.58
2023-05-19T12:52:40.949Z,11.56
2023-05-19T12:53:41.390Z,11.56
2023-05-19T12:54:41.024Z,11.56
2023-05-19T12:55:54.718Z,11.56
2023-05-19T12:56:41.004Z,11.56
2023-05-19T12:57:41.024Z,11.56
2023-05-19T12:58:40.540Z,11.56
2023-05-19T12:59:59.210Z,11.56
2023-05-19T13:00:42.099Z,11.56